Marfa's Hourly Summary for Friday, August 28, 2026
Hour Temp
(f)
RH
(%)
Solar Rad.
(MJ/m2)
Rainfall
(in)
Wind
(mph)
Battery
(volts)
8/28/2026 12:00 AM 78 38 0 0 2.38 0
8/28/2026 1:00 AM 77 42 0 0 1.87 0
8/28/2026 2:00 AM 75 45 0 0 2.21 0
8/28/2026 3:00 AM 76 44 0 0 1.03 0
8/28/2026 4:00 AM 74 45 0 0 4.52 0
8/28/2026 5:00 AM 70 51 0 0 6.38 0
8/28/2026 6:00 AM 69 54 0 0 3.97 0
8/28/2026 7:00 AM 68 55 0 0 5.23 0
8/28/2026 8:00 AM 68 54 0.04 0 5.3 0
8/28/2026 9:00 AM 74 47 0.16 0 5.33 0
8/28/2026 10:00 AM 80 42 0.31 0 3.7 0
8/28/2026 11:00 AM 85 35 0.46 0 2.8 0
8/28/2026 12:00 PM 88 29 0.6 0 4.14 0
8/28/2026 1:00 PM 87 31 0.13 0 5.13 0
8/28/2026 2:00 PM 89 27 0.15 0 2.95 0
8/28/2026 3:00 PM 89 27 0.14 0 4.94 0
8/28/2026 4:00 PM 94 23 0.76 0 7.6 0
8/28/2026 5:00 PM 94 23 0.15 0 8.63 0
8/28/2026 6:00 PM 93 21 0.47 0 4.47 0
8/28/2026 7:00 PM 91 22 0.11 0 6.44 0
8/28/2026 8:00 PM 89 25 0.02 0 7.74 0
8/28/2026 9:00 PM 86 28 0 0 9.12 0
8/28/2026 10:00 PM 84 30 0 0 7.77 0
8/28/2026 11:00 PM 83 34 0 0 6.96 0
Data Summary 81 36 3.50 0.00 5.03 0.00